sensor_id;sensor_type;location;lat;lon;timestamp;pressure;altitude;pressure_sealevel;temperature;humidity
59686;BME280;45554;51.096;16.976;2024-02-14T00:41:04;100741.42;;;1.83;81.31
59686;BME280;45554;51.096;16.976;2024-02-14T00:43:33;100744.48;;;1.88;81.40
59686;BME280;45554;51.096;16.976;2024-02-14T00:46:01;100741.19;;;1.89;81.47
59686;BME280;45554;51.096;16.976;2024-02-14T00:48:29;100747.20;;;1.92;81.58
59686;BME280;45554;51.096;16.976;2024-02-14T00:50:57;100740.26;;;1.96;81.72
59686;BME280;45554;51.096;16.976;2024-02-14T00:53:27;100741.92;;;2.01;81.71
59686;BME280;45554;51.096;16.976;2024-02-14T00:55:55;100745.31;;;2.06;81.68
59686;BME280;45554;51.096;16.976;2024-02-14T00:58:26;100742.33;;;2.10;81.50
59686;BME280;45554;51.096;16.976;2024-02-14T01:00:54;100740.42;;;2.10;81.38
59686;BME280;45554;51.096;16.976;2024-02-14T01:03:23;100737.09;;;2.13;81.46
59686;BME280;45554;51.096;16.976;2024-02-14T01:05:51;100733.49;;;2.12;81.28
59686;BME280;45554;51.096;16.976;2024-02-14T01:08:19;100735.71;;;2.13;81.15
59686;BME280;45554;51.096;16.976;2024-02-14T01:10:47;100738.69;;;2.11;81.12
59686;BME280;45554;51.096;16.976;2024-02-14T01:13:18;100738.41;;;2.04;80.96
59686;BME280;45554;51.096;16.976;2024-02-14T01:15:46;100727.85;;;1.93;81.11
59686;BME280;45554;51.096;16.976;2024-02-14T01:18:14;100742.22;;;1.91;80.95
59686;BME280;45554;51.096;16.976;2024-02-14T01:20:43;100741.28;;;1.81;80.91
59686;BME280;45554;51.096;16.976;2024-02-14T01:23:14;100737.42;;;1.71;81.28
59686;BME280;45554;51.096;16.976;2024-02-14T01:25:42;100739.05;;;1.64;81.18
59686;BME280;45554;51.096;16.976;2024-02-14T01:28:13;100743.09;;;1.58;81.73
59686;BME280;45554;51.096;16.976;2024-02-14T01:30:42;100740.04;;;1.52;81.45
59686;BME280;45554;51.096;16.976;2024-02-14T01:33:10;100744.92;;;1.47;81.45
59686;BME280;45554;51.096;16.976;2024-02-14T01:35:42;100742.73;;;1.42;81.55
59686;BME280;45554;51.096;16.976;2024-02-14T01:38:10;100745.70;;;1.38;81.45
59686;BME280;45554;51.096;16.976;2024-02-14T01:40:43;100743.51;;;1.33;81.46
59686;BME280;45554;51.096;16.976;2024-02-14T01:43:12;100743.89;;;1.28;81.87
59686;BME280;45554;51.096;16.976;2024-02-14T01:45:42;100741.35;;;1.24;82.00
59686;BME280;45554;51.096;16.976;2024-02-14T01:48:10;100744.33;;;1.18;81.68
59686;BME280;45554;51.096;16.976;2024-02-14T01:50:38;100741.81;;;1.11;81.95
59686;BME280;45554;51.096;16.976;2024-02-14T01:53:10;100739.80;;;1.03;82.21
59686;BME280;45554;51.096;16.976;2024-02-14T01:55:38;100746.77;;;0.95;82.19
59686;BME280;45554;51.096;16.976;2024-02-14T01:58:07;100737.88;;;0.83;82.47
59686;BME280;45554;51.096;16.976;2024-02-14T02:00:35;100745.13;;;0.84;82.66
59686;BME280;45554;51.096;16.976;2024-02-14T02:03:05;100742.58;;;0.78;82.62
59686;BME280;45554;51.096;16.976;2024-02-14T02:05:33;100742.41;;;0.75;82.99
59686;BME280;45554;51.096;16.976;2024-02-14T02:08:03;100742.08;;;0.75;83.06
59686;BME280;45554;51.096;16.976;2024-02-14T02:10:32;100741.42;;;0.71;83.06
59686;BME280;45554;51.096;16.976;2024-02-14T02:13:00;100746.61;;;0.67;83.10
59686;BME280;45554;51.096;16.976;2024-02-14T02:15:31;100743.36;;;0.65;83.16
59686;BME280;45554;51.096;16.976;2024-02-14T02:17:59;100719.98;;;0.52;83.16
59686;BME280;45554;51.096;16.976;2024-02-14T02:20:28;100738.20;;;0.63;83.64
59686;BME280;45554;51.096;16.976;2024-02-14T02:22:57;100731.83;;;0.61;83.64
59686;BME280;45554;51.096;16.976;2024-02-14T02:25:25;100734.24;;;0.60;83.56
59686;BME280;45554;51.096;16.976;2024-02-14T02:27:55;100732.17;;;0.60;83.58
59686;BME280;45554;51.096;16.976;2024-02-14T02:30:26;100733.73;;;0.60;83.71
59686;BME280;45554;51.096;16.976;2024-02-14T02:32:57;100731.15;;;0.59;83.97
59686;BME280;45554;51.096;16.976;2024-02-14T02:35:26;100730.30;;;0.57;83.78
59686;BME280;45554;51.096;16.976;2024-02-14T02:37:54;100731.86;;;0.56;84.21
59686;BME280;45554;51.096;16.976;2024-02-14T02:40:23;100733.58;;;0.56;84.23
59686;BME280;45554;51.096;16.976;2024-02-14T02:42:54;100733.08;;;0.55;83.99
59686;BME280;45554;51.096;16.976;2024-02-14T02:45:24;100731.88;;;0.52;83.81
59686;BME280;45554;51.096;16.976;2024-02-14T02:47:52;100731.20;;;0.49;83.64
59686;BME280;45554;51.096;16.976;2024-02-14T02:50:22;100732.27;;;0.46;83.54
59686;BME280;45554;51.096;16.976;2024-02-14T02:52:50;100734.34;;;0.44;83.74
59686;BME280;45554;51.096;16.976;2024-02-14T02:55:18;100732.77;;;0.46;84.13
59686;BME280;45554;51.096;16.976;2024-02-14T02:57:46;100730.53;;;0.49;84.86
59686;BME280;45554;51.096;16.976;2024-02-14T03:00:14;100733.59;;;0.54;84.77
59686;BME280;45554;51.096;16.976;2024-02-14T03:02:43;100734.77;;;0.58;84.87
59686;BME280;45554;51.096;16.976;2024-02-14T03:05:14;100733.21;;;0.60;84.54
59686;BME280;45554;51.096;16.976;2024-02-14T03:07:47;100733.05;;;0.60;84.24
59686;BME280;45554;51.096;16.976;2024-02-14T03:10:18;100732.02;;;0.58;84.08
59686;BME280;45554;51.096;16.976;2024-02-14T03:12:47;100730.31;;;0.57;84.42
59686;BME280;45554;51.096;16.976;2024-02-14T03:15:15;100734.77;;;0.59;84.63
59686;BME280;45554;51.096;16.976;2024-02-14T03:17:44;100732.50;;;0.62;84.91
59686;BME280;45554;51.096;16.976;2024-02-14T03:20:14;100734.91;;;0.65;84.73
59686;BME280;45554;51.096;16.976;2024-02-14T03:22:45;100731.95;;;0.68;84.74
59686;BME280;45554;51.096;16.976;2024-02-14T03:25:16;100721.09;;;0.66;84.92
59686;BME280;45554;51.096;16.976;2024-02-14T03:27:47;100728.83;;;0.70;84.75
59686;BME280;45554;51.096;16.976;2024-02-14T03:30:19;100728.30;;;0.71;84.67
59686;BME280;45554;51.096;16.976;2024-02-14T03:32:48;100727.46;;;0.67;84.52
59686;BME280;45554;51.096;16.976;2024-02-14T03:35:17;100730.08;;;0.65;84.55
59686;BME280;45554;51.096;16.976;2024-02-14T03:37:49;100719.44;;;0.54;84.44
59686;BME280;45554;51.096;16.976;2024-02-14T03:40:20;100733.75;;;0.58;84.32
59686;BME280;45554;51.096;16.976;2024-02-14T03:42:51;100739.95;;;0.56;84.47
59686;BME280;45554;51.096;16.976;2024-02-14T03:45:19;100736.89;;;0.51;84.67
59686;BME280;45554;51.096;16.976;2024-02-14T03:47:50;100742.41;;;0.51;84.25
59686;BME280;45554;51.096;16.976;2024-02-14T03:50:18;100746.40;;;0.48;84.46
59686;BME280;45554;51.096;16.976;2024-02-14T03:52:46;100745.20;;;0.45;84.22
59686;BME280;45554;51.096;16.976;2024-02-14T03:55:14;100742.30;;;0.40;84.06
59686;BME280;45554;51.096;16.976;2024-02-14T03:57:45;100749.04;;;0.37;84.23
59686;BME280;45554;51.096;16.976;2024-02-14T04:00:15;100751.29;;;0.37;84.63
59686;BME280;45554;51.096;16.976;2024-02-14T04:02:45;100746.81;;;0.35;84.56
59686;BME280;45554;51.096;16.976;2024-02-14T04:05:17;100750.61;;;0.34;84.41
59686;BME280;45554;51.096;16.976;2024-02-14T04:07:45;100751.99;;;0.33;84.69
59686;BME280;45554;51.096;16.976;2024-02-14T04:10:19;100757.15;;;0.36;85.42
59686;BME280;45554;51.096;16.976;2024-02-14T04:12:47;100755.05;;;0.40;85.46
59686;BME280;45554;51.096;16.976;2024-02-14T04:15:18;100758.83;;;0.44;85.70
59686;BME280;45554;51.096;16.976;2024-02-14T04:17:47;100756.75;;;0.46;85.39
59686;BME280;45554;51.096;16.976;2024-02-14T04:20:16;100760.21;;;0.44;85.37
59686;BME280;45554;51.096;16.976;2024-02-14T04:22:44;100761.08;;;0.44;85.36
59686;BME280;45554;51.096;16.976;2024-02-14T04:25:12;100758.66;;;0.43;85.26
59686;BME280;45554;51.096;16.976;2024-02-14T04:27:40;100755.40;;;0.40;85.40
59686;BME280;45554;51.096;16.976;2024-02-14T04:30:08;100759.20;;;0.37;85.30
59686;BME280;45554;51.096;16.976;2024-02-14T04:32:37;100759.39;;;0.36;85.58
59686;BME280;45554;51.096;16.976;2024-02-14T04:35:06;100753.86;;;0.37;86.00
59686;BME280;45554;51.096;16.976;2024-02-14T04:37:34;100746.81;;;0.35;85.71
59686;BME280;45554;51.096;16.976;2024-02-14T04:40:04;100753.15;;;0.39;85.78
59686;BME280;45554;51.096;16.976;2024-02-14T04:42:33;100756.29;;;0.37;85.48
59686;BME280;45554;51.096;16.976;2024-02-14T04:45:01;100753.02;;;0.34;85.73
59686;BME280;45554;51.096;16.976;2024-02-14T04:47:32;100755.09;;;0.35;85.61
59686;BME280;45554;51.096;16.976;2024-02-14T04:50:01;100754.05;;;0.34;85.88
59686;BME280;45554;51.096;16.976;2024-02-14T04:52:32;100749.23;;;0.34;85.96
59686;BME280;45554;51.096;16.976;2024-02-14T04:55:01;100749.40;;;0.36;85.77
59686;BME280;45554;51.096;16.976;2024-02-14T04:57:29;100751.80;;;0.39;86.08
59686;BME280;45554;51.096;16.976;2024-02-14T04:59:59;100742.64;;;0.40;86.04
59686;BME280;45554;51.096;16.976;2024-02-14T05:02:28;100750.75;;;0.39;85.83
59686;BME280;45554;51.096;16.976;2024-02-14T05:04:57;100749.36;;;0.39;85.97
59686;BME280;45554;51.096;16.976;2024-02-14T05:07:36;100745.58;;;0.37;85.66
59686;BME280;45554;51.096;16.976;2024-02-14T05:10:05;100742.85;;;0.34;85.72
59686;BME280;45554;51.096;16.976;2024-02-14T05:12:35;100740.63;;;0.30;85.70
59686;BME280;45554;51.096;16.976;2024-02-14T05:15:04;100742.19;;;0.28;85.64
59686;BME280;45554;51.096;16.976;2024-02-14T05:17:32;100743.92;;;0.26;85.74
59686;BME280;45554;51.096;16.976;2024-02-14T05:20:00;100745.47;;;0.26;86.16
59686;BME280;45554;51.096;16.976;2024-02-14T05:22:28;100740.14;;;0.24;85.98
59686;BME280;45554;51.096;16.976;2024-02-14T05:24:56;100742.20;;;0.25;85.97
59686;BME280;45554;51.096;16.976;2024-02-14T05:27:24;100740.15;;;0.24;85.87
59686;BME280;45554;51.096;16.976;2024-02-14T05:29:52;100740.66;;;0.23;86.16
59686;BME280;45554;51.096;16.976;2024-02-14T05:32:24;100744.12;;;0.23;86.23
59686;BME280;45554;51.096;16.976;2024-02-14T05:34:55;100742.05;;;0.19;86.00
59686;BME280;45554;51.096;16.976;2024-02-14T05:37:24;100742.75;;;0.18;85.95
59686;BME280;45554;51.096;16.976;2024-02-14T05:39:55;100742.59;;;0.16;86.04
59686;BME280;45554;51.096;16.976;2024-02-14T05:42:23;100735.53;;;0.14;86.38
59686;BME280;45554;51.096;16.976;2024-02-14T05:44:53;100731.23;;;0.11;86.30
59686;BME280;45554;51.096;16.976;2024-02-14T05:47:21;100730.73;;;0.10;86.71
59686;BME280;45554;51.096;16.976;2024-02-14T05:49:49;100732.78;;;0.11;86.54
59686;BME280;45554;51.096;16.976;2024-02-14T05:52:17;100732.63;;;0.12;86.55
59686;BME280;45554;51.096;16.976;2024-02-14T05:54:48;100731.93;;;0.11;86.52
59686;BME280;45554;51.096;16.976;2024-02-14T05:57:18;100733.48;;;0.12;86.45
59686;BME280;45554;51.096;16.976;2024-02-14T05:59:56;100731.73;;;0.12;86.35
59686;BME280;45554;51.096;16.976;2024-02-14T06:02:29;100731.05;;;0.15;86.90
59686;BME280;45554;51.096;16.976;2024-02-14T06:05:19;100730.70;;;0.15;86.50
59686;BME280;45554;51.096;16.976;2024-02-14T06:08:13;100726.23;;;0.13;86.64
59686;BME280;45554;51.096;16.976;2024-02-14T06:10:42;100730.00;;;0.17;86.76
59686;BME280;45554;51.096;16.976;2024-02-14T06:13:10;100727.23;;;0.19;86.75
59686;BME280;45554;51.096;16.976;2024-02-14T06:15:38;100730.16;;;0.20;86.71
59686;BME280;45554;51.096;16.976;2024-02-14T06:18:07;100739.27;;;0.24;87.17
59686;BME280;45554;51.096;16.976;2024-02-14T06:20:35;100741.17;;;0.24;86.59
59686;BME280;45554;51.096;16.976;2024-02-14T06:23:04;100743.77;;;0.23;86.64
59686;BME280;45554;51.096;16.976;2024-02-14T06:25:39;100746.52;;;0.23;86.74
59686;BME280;45554;51.096;16.976;2024-02-14T06:28:07;100747.05;;;0.23;86.63
59686;BME280;45554;51.096;16.976;2024-02-14T06:30:39;100747.55;;;0.24;87.04
59686;BME280;45554;51.096;16.976;2024-02-14T06:33:07;100746.16;;;0.26;87.00
59686;BME280;45554;51.096;16.976;2024-02-14T06:35:37;100747.72;;;0.26;86.81
59686;BME280;45554;51.096;16.976;2024-02-14T06:38:06;100749.60;;;0.29;86.93
59686;BME280;45554;51.096;16.976;2024-02-14T06:40:34;100754.23;;;0.33;87.25
59686;BME280;45554;51.096;16.976;2024-02-14T06:43:02;100755.59;;;0.37;87.18
59686;BME280;45554;51.096;16.976;2024-02-14T06:45:31;100754.53;;;0.42;87.02
59686;BME280;45554;51.096;16.976;2024-02-14T06:47:59;100746.77;;;0.44;86.95
59686;BME280;45554;51.096;16.976;2024-02-14T06:50:28;100753.95;;;0.52;87.09
59686;BME280;45554;51.096;16.976;2024-02-14T06:52:57;100749.46;;;0.54;86.76
59686;BME280;45554;51.096;16.976;2024-02-14T06:55:31;100757.85;;;0.63;86.97
59686;BME280;45554;51.096;16.976;2024-02-14T06:58:09;100755.21;;;0.70;86.97
59686;BME280;45554;51.096;16.976;2024-02-14T07:00:48;100743.66;;;0.70;86.62
59686;BME280;45554;51.096;16.976;2024-02-14T07:03:33;100761.17;;;0.85;86.49
59686;BME280;45554;51.096;16.976;2024-02-14T07:07:01;100764.18;;;0.98;86.79
59686;BME280;45554;51.096;16.976;2024-02-14T07:10:33;100767.19;;;1.10;86.24
59686;BME280;45554;51.096;16.976;2024-02-14T07:13:18;100746.46;;;1.11;86.51
59686;BME280;45554;51.096;16.976;2024-02-14T07:40:59;100734.45;;;2.04;85.06
59686;BME280;45554;51.096;16.976;2024-02-14T07:50:06;100720.52;;;2.24;84.56
59686;BME280;45554;51.096;16.976;2024-02-14T15:09:00;100486.54;;;10.83;57.35
59686;BME280;45554;51.096;16.976;2024-02-14T15:12:43;100491.77;;;10.81;57.79
59686;BME280;45554;51.096;16.976;2024-02-14T15:17:02;100502.27;;;10.81;57.68
59686;BME280;45554;51.096;16.976;2024-02-14T15:24:49;100488.41;;;10.61;57.60
59686;BME280;45554;51.096;16.976;2024-02-14T15:37:04;100507.11;;;10.41;57.75
59686;BME280;45554;51.096;16.976;2024-02-14T15:40:06;100510.27;;;10.33;57.95
59686;BME280;45554;51.096;16.976;2024-02-14T15:44:02;100520.09;;;10.26;58.04
59686;BME280;45554;51.096;16.976;2024-02-14T15:51:24;100518.20;;;10.08;58.71
59686;BME280;45554;51.096;16.976;2024-02-14T15:59:42;100519.23;;;9.90;59.47
59686;BME280;45554;51.096;16.976;2024-02-14T16:03:32;100527.17;;;9.85;59.87
59686;BME280;45554;51.096;16.976;2024-02-14T16:07:28;100531.55;;;9.77;60.29
59686;BME280;45554;51.096;16.976;2024-02-14T16:10:36;100535.42;;;9.73;60.53
59686;BME280;45554;51.096;16.976;2024-02-14T16:13:51;100536.15;;;9.69;60.88
59686;BME280;45554;51.096;16.976;2024-02-14T16:17:29;100539.28;;;9.65;61.22
59686;BME280;45554;51.096;16.976;2024-02-14T16:21:15;100543.02;;;9.60;61.52
59686;BME280;45554;51.096;16.976;2024-02-14T16:24:31;100538.29;;;9.57;61.91
59686;BME280;45554;51.096;16.976;2024-02-14T16:42:15;100556.73;;;9.20;63.62
59686;BME280;45554;51.096;16.976;2024-02-14T16:53:48;100566.10;;;9.06;64.98
59686;BME280;45554;51.096;16.976;2024-02-14T17:00:27;100571.86;;;8.98;65.69
59686;BME280;45554;51.096;16.976;2024-02-14T17:07:48;100575.58;;;8.85;66.39
59686;BME280;45554;51.096;16.976;2024-02-14T17:11:34;100582.77;;;8.84;66.63
59686;BME280;45554;51.096;16.976;2024-02-14T17:14:57;100588.48;;;8.81;66.84
59686;BME280;45554;51.096;16.976;2024-02-14T17:19:13;100594.67;;;8.76;67.20
59686;BME280;45554;51.096;16.976;2024-02-14T17:22:27;100589.53;;;8.69;67.38
59686;BME280;45554;51.096;16.976;2024-02-14T17:25:17;100578.21;;;8.60;67.81
59686;BME280;45554;51.096;16.976;2024-02-14T17:29:32;100597.14;;;8.67;68.18
59686;BME280;45554;51.096;16.976;2024-02-14T17:32:22;100601.55;;;8.66;68.25
59686;BME280;45554;51.096;16.976;2024-02-14T17:40:33;100608.05;;;8.61;68.57
59686;BME280;45554;51.096;16.976;2024-02-14T18:07:45;100617.02;;;8.59;70.03
59686;BME280;45554;51.096;16.976;2024-02-14T18:10:16;100618.52;;;8.61;69.99
59686;BME280;45554;51.096;16.976;2024-02-14T18:13:35;100617.34;;;8.60;70.30
59686;BME280;45554;51.096;16.976;2024-02-14T18:21:13;100602.27;;;8.48;70.64
59686;BME280;45554;51.096;16.976;2024-02-14T18:24:36;100612.39;;;8.57;70.53
59686;BME280;45554;51.096;16.976;2024-02-14T18:27:34;100610.84;;;8.57;71.09
59686;BME280;45554;51.096;16.976;2024-02-14T18:30:10;100611.23;;;8.56;71.18
59686;BME280;45554;51.096;16.976;2024-02-14T18:37:24;100614.07;;;8.49;71.61
59686;BME280;45554;51.096;16.976;2024-02-14T18:41:36;100610.62;;;8.44;71.92
59686;BME280;45554;51.096;16.976;2024-02-14T18:44:12;100585.64;;;8.27;72.00
59686;BME280;45554;51.096;16.976;2024-02-14T18:46:46;100594.89;;;8.31;72.23
59686;BME280;45554;51.096;16.976;2024-02-14T18:49:38;100604.64;;;8.36;72.44
59686;BME280;45554;51.096;16.976;2024-02-14T18:52:14;100599.70;;;8.33;72.37
59686;BME280;45554;51.096;16.976;2024-02-14T18:58:40;100602.52;;;8.28;72.82
59686;BME280;45554;51.096;16.976;2024-02-14T19:01:29;100596.24;;;8.28;73.03
59686;BME280;45554;51.096;16.976;2024-02-14T19:04:16;100598.15;;;8.28;73.15
59686;BME280;45554;51.096;16.976;2024-02-14T19:06:58;100600.59;;;8.29;73.36
59686;BME280;45554;51.096;16.976;2024-02-14T19:10:17;100599.16;;;8.29;73.53
59686;BME280;45554;51.096;16.976;2024-02-14T19:12:57;100591.92;;;8.27;73.84
59686;BME280;45554;51.096;16.976;2024-02-14T19:19:25;100601.48;;;8.37;74.10
59686;BME280;45554;51.096;16.976;2024-02-14T19:22:58;100592.21;;;8.37;74.38
59686;BME280;45554;51.096;16.976;2024-02-14T19:25:27;100590.98;;;8.37;74.34
59686;BME280;45554;51.096;16.976;2024-02-14T19:28:22;100581.33;;;8.34;74.24
59686;BME280;45554;51.096;16.976;2024-02-14T19:31:09;100582.73;;;8.38;74.53
59686;BME280;45554;51.096;16.976;2024-02-14T19:34:05;100590.75;;;8.47;74.50
59686;BME280;45554;51.096;16.976;2024-02-14T19:36:54;100591.98;;;8.47;74.61
59686;BME280;45554;51.096;16.976;2024-02-14T19:39:23;100595.30;;;8.47;74.54
59686;BME280;45554;51.096;16.976;2024-02-14T19:42:51;100590.65;;;8.45;74.49
59686;BME280;45554;51.096;16.976;2024-02-14T19:45:25;100595.19;;;8.45;74.55
59686;BME280;45554;51.096;16.976;2024-02-14T19:48:16;100594.73;;;8.44;74.49
59686;BME280;45554;51.096;16.976;2024-02-14T19:50:47;100595.71;;;8.41;74.26
59686;BME280;45554;51.096;16.976;2024-02-14T19:57:20;100585.00;;;8.30;74.06
59686;BME280;45554;51.096;16.976;2024-02-14T20:00:06;100599.48;;;8.38;74.02
59686;BME280;45554;51.096;16.976;2024-02-14T20:02:43;100594.86;;;8.36;74.09
59686;BME280;45554;51.096;16.976;2024-02-14T20:05:46;100602.77;;;8.40;73.94
59686;BME280;45554;51.096;16.976;2024-02-14T20:08:21;100602.05;;;8.40;73.80
59686;BME280;45554;51.096;16.976;2024-02-14T20:15:15;100609.35;;;8.45;74.06
59686;BME280;45554;51.096;16.976;2024-02-14T20:18:08;100610.04;;;8.45;73.82
59686;BME280;45554;51.096;16.976;2024-02-14T20:20:50;100612.88;;;8.44;73.80
59686;BME280;45554;51.096;16.976;2024-02-14T20:24:34;100610.27;;;8.44;74.05
59686;BME280;45554;51.096;16.976;2024-02-14T20:27:21;100604.50;;;8.40;73.99
59686;BME280;45554;51.096;16.976;2024-02-14T20:30:01;100609.33;;;8.41;74.07
59686;BME280;45554;51.096;16.976;2024-02-14T20:32:42;100610.27;;;8.40;73.93
59686;BME280;45554;51.096;16.976;2024-02-14T20:35:12;100605.75;;;8.39;73.95
59686;BME280;45554;51.096;16.976;2024-02-14T20:38:27;100609.84;;;8.42;73.84
59686;BME280;45554;51.096;16.976;2024-02-14T20:41:47;100613.33;;;8.42;74.08
59686;BME280;45554;51.096;16.976;2024-02-14T20:44:31;100615.26;;;8.42;74.20
59686;BME280;45554;51.096;16.976;2024-02-14T20:47:36;100593.91;;;8.25;74.18
59686;BME280;45554;51.096;16.976;2024-02-14T20:57:15;100619.52;;;8.44;73.98
59686;BME280;45554;51.096;16.976;2024-02-14T21:04:14;100617.42;;;8.44;73.98
59686;BME280;45554;51.096;16.976;2024-02-14T21:07:14;100617.23;;;8.45;74.17
59686;BME280;45554;51.096;16.976;2024-02-14T21:09:46;100615.81;;;8.45;74.15
59686;BME280;45554;51.096;16.976;2024-02-14T21:12:23;100614.38;;;8.46;74.22
59686;BME280;45554;51.096;16.976;2024-02-14T21:15:13;100616.08;;;8.47;74.16
59686;BME280;45554;51.096;16.976;2024-02-14T21:23:30;100602.55;;;8.45;74.51
59686;BME280;45554;51.096;16.976;2024-02-14T21:27:45;100595.73;;;8.45;74.48
59686;BME280;45554;51.096;16.976;2024-02-14T21:31:12;100593.02;;;8.43;74.62
59686;BME280;45554;51.096;16.976;2024-02-14T21:34:02;100591.93;;;8.44;74.57
59686;BME280;45554;51.096;16.976;2024-02-14T21:36:33;100590.40;;;8.47;74.95
59686;BME280;45554;51.096;16.976;2024-02-14T21:39:10;100583.71;;;8.44;74.88
59686;BME280;45554;51.096;16.976;2024-02-14T21:41:45;100590.17;;;8.48;74.67
59686;BME280;45554;51.096;16.976;2024-02-14T21:44:24;100580.79;;;8.43;74.93
59686;BME280;45554;51.096;16.976;2024-02-14T21:47:04;100586.02;;;8.47;74.88
59686;BME280;45554;51.096;16.976;2024-02-14T21:49:46;100587.86;;;8.50;74.86
59686;BME280;45554;51.096;16.976;2024-02-14T21:52:49;100589.55;;;8.51;75.01
59686;BME280;45554;51.096;16.976;2024-02-14T21:56:01;100591.77;;;8.53;75.02
59686;BME280;45554;51.096;16.976;2024-02-14T21:59:08;100566.47;;;8.39;74.99
59686;BME280;45554;51.096;16.976;2024-02-14T22:02:12;100591.73;;;8.54;75.02
59686;BME280;45554;51.096;16.976;2024-02-14T22:04:49;100599.41;;;8.54;75.01
59686;BME280;45554;51.096;16.976;2024-02-14T22:07:43;100605.48;;;8.55;74.91
59686;BME280;45554;51.096;16.976;2024-02-14T22:14:44;100606.11;;;8.57;74.97
59686;BME280;45554;51.096;16.976;2024-02-14T22:17:28;100612.72;;;8.58;74.92
59686;BME280;45554;51.096;16.976;2024-02-14T22:24:13;100616.23;;;8.57;74.80
59686;BME280;45554;51.096;16.976;2024-02-14T22:30:40;100615.86;;;8.58;74.63
59686;BME280;45554;51.096;16.976;2024-02-14T22:41:04;100606.41;;;8.45;74.73
59686;BME280;45554;51.096;16.976;2024-02-14T22:52:06;100622.98;;;8.54;74.73
59686;BME280;45554;51.096;16.976;2024-02-14T22:54:36;100618.30;;;8.53;74.77
59686;BME280;45554;51.096;16.976;2024-02-14T22:57:04;100621.96;;;8.54;74.97
59686;BME280;45554;51.096;16.976;2024-02-14T23:00:25;100622.52;;;8.57;74.95
59686;BME280;45554;51.096;16.976;2024-02-14T23:02:54;100624.60;;;8.58;74.83
59686;BME280;45554;51.096;16.976;2024-02-14T23:05:52;100622.72;;;8.56;75.02
59686;BME280;45554;51.096;16.976;2024-02-14T23:08:29;100625.44;;;8.58;75.10
59686;BME280;45554;51.096;16.976;2024-02-14T23:11:24;100624.74;;;8.58;75.34
59686;BME280;45554;51.096;16.976;2024-02-14T23:14:28;100620.89;;;8.58;75.26
59686;BME280;45554;51.096;16.976;2024-02-14T23:17:31;100620.90;;;8.58;75.45
59686;BME280;45554;51.096;16.976;2024-02-14T23:20:12;100622.94;;;8.60;75.88
59686;BME280;45554;51.096;16.976;2024-02-14T23:22:46;100621.65;;;8.61;75.94
59686;BME280;45554;51.096;16.976;2024-02-14T23:25:13;100618.46;;;8.62;76.39
59686;BME280;45554;51.096;16.976;2024-02-14T23:29:05;100619.23;;;8.65;76.48
59686;BME280;45554;51.096;16.976;2024-02-14T23:32:47;100618.45;;;8.67;76.75
59686;BME280;45554;51.096;16.976;2024-02-14T23:38:42;100614.68;;;8.69;76.62
59686;BME280;45554;51.096;16.976;2024-02-14T23:42:02;100619.14;;;8.71;76.72
59686;BME280;45554;51.096;16.976;2024-02-14T23:45:33;100624.89;;;8.72;76.74
59686;BME280;45554;51.096;16.976;2024-02-14T23:48:23;100614.52;;;8.69;76.69
59686;BME280;45554;51.096;16.976;2024-02-14T23:50:53;100620.01;;;8.76;76.71
59686;BME280;45554;51.096;16.976;2024-02-14T23:54:42;100621.30;;;8.78;76.73
59686;BME280;45554;51.096;16.976;2024-02-14T23:57:13;100616.34;;;8.76;76.60
